首页
METAR-TAF:

METAR-TAF

机场 :

Fort Lauderdale Executive Airport

劳德代尔堡, 佛罗里达州, 美国

纬度: 26-12-00N, 经度: 080-11-00W, 海拔: 4米

当前天气观测

该预报发布于1小时和3分钟前的15:53 UTC
静风
温度 32°C
湿度 63%
气压 1015 hPa
能見度: 16.1公里
散云层高于2900英尺

METAR: KFXE 241553Z 00000KT 10SM SCT029 32/24 A2997 RMK AO2 SLP151 T03170239

时间: 12:56 (16:56 UTC)

预报

该预报发布于1小时和35分钟前的15:21 UTC
预报有效从24日的 15点(UTC)到 25日的 12点(UTC)
风速10节,风向东转东南
能見度: 10公里
散云层高于3000英尺, 积雨云.
多云层高于5000英尺
附近有雷暴
从 25日的 0000点(UTC)
风速5节,风向多变
能見度: 10公里
散云层高于3000英尺
散云层高于5000英尺

TAF: KFXE 241521Z 2415/2512 12010KT P6SM VCTS SCT030CB BKN050 FM250000 VRB05KT P6SM SCT030 SCT050

超过4000个机场的气象观测和天气预报(METAR&TAF报告)。

可查询的气象台以黄色和红色小点在地图上表示。

将鼠标移到小点上方,可查看气象台名称。

然后点击查看天气观测和预报。

如需切换地图:点击带黑十字的绿色按钮放大地图;点击带横线的绿色按钮缩小地图;或者点击绿色箭头查看邻近地区的地图。


METAR-TAF: